createdAt,value
2022-12-14T00:01:18.349Z,-4.46
2022-12-14T00:03:45.362Z,-4.37
2022-12-14T00:06:23.709Z,-4.19
2022-12-14T00:08:52.298Z,-4.16
2022-12-14T00:11:19.387Z,-4.23
2022-12-14T00:13:48.804Z,-4.32
2022-12-14T00:16:17.828Z,-4.30
2022-12-14T00:18:48.612Z,-4.35
2022-12-14T00:21:15.305Z,-4.42
2022-12-14T00:23:44.549Z,-4.32
2022-12-14T00:26:15.947Z,-4.29
2022-12-14T00:28:43.399Z,-4.24
2022-12-14T00:31:10.331Z,-4.23
2022-12-14T00:33:37.241Z,-4.25
2022-12-14T00:36:05.418Z,-4.30
2022-12-14T00:38:31.789Z,-4.37
2022-12-14T00:40:58.360Z,-4.33
2022-12-14T00:43:25.208Z,-4.32
2022-12-14T00:45:52.227Z,-4.39
2022-12-14T00:48:23.752Z,-4.38
2022-12-14T00:50:51.614Z,-4.22
2022-12-14T00:53:19.844Z,-4.24
2022-12-14T00:55:49.083Z,-4.28
2022-12-14T00:58:18.124Z,-4.23
2022-12-14T01:00:44.669Z,-4.28
2022-12-14T01:03:12.607Z,-4.19
2022-12-14T01:05:39.571Z,-4.25
2022-12-14T01:08:06.740Z,-4.32
2022-12-14T01:10:33.164Z,-4.32
2022-12-14T01:13:00.581Z,-4.34
2022-12-14T01:15:26.959Z,-4.20
2022-12-14T01:17:53.365Z,-4.10
2022-12-14T01:20:20.261Z,-4.23
2022-12-14T01:22:46.607Z,-4.33
2022-12-14T01:25:13.014Z,-4.38
2022-12-14T01:27:39.421Z,-4.34
2022-12-14T01:30:06.198Z,-4.24
2022-12-14T01:32:34.412Z,-4.35
2022-12-14T01:35:00.895Z,-4.55
2022-12-14T01:37:27.281Z,-4.49
2022-12-14T01:39:53.685Z,-4.45
2022-12-14T01:42:20.010Z,-4.51
2022-12-14T01:44:55.306Z,-4.41
2022-12-14T01:47:24.914Z,-4.27
2022-12-14T01:50:05.730Z,-4.21
2022-12-14T01:52:40.086Z,-4.19
2022-12-14T01:55:23.970Z,-4.30
2022-12-14T01:58:07.626Z,-4.41
2022-12-14T02:00:34.041Z,-4.48
2022-12-14T02:03:04.771Z,-4.31
2022-12-14T02:05:35.341Z,-4.24
2022-12-14T02:08:03.038Z,-4.11
2022-12-14T02:10:31.073Z,-4.22
2022-12-14T02:13:06.417Z,-4.43
2022-12-14T02:15:34.522Z,-4.48
2022-12-14T02:18:03.646Z,-4.41
2022-12-14T02:20:39.843Z,-4.39
2022-12-14T02:23:43.724Z,-4.49
2022-12-14T02:26:16.707Z,-4.55
2022-12-14T02:29:20.205Z,-4.56
2022-12-14T02:32:04.515Z,-4.57
2022-12-14T02:35:01.353Z,-4.58
2022-12-14T02:37:49.630Z,-4.63
2022-12-14T02:40:37.749Z,-4.50
2022-12-14T02:43:18.868Z,-4.48
2022-12-14T02:45:53.275Z,-4.35
2022-12-14T02:48:43.311Z,-4.41
2022-12-14T02:51:35.737Z,-4.41
2022-12-14T02:54:16.812Z,-4.47
2022-12-14T02:56:50.844Z,-4.41
2022-12-14T02:59:18.499Z,-4.41
2022-12-14T03:01:47.861Z,-4.39
2022-12-14T03:04:14.983Z,-4.48
2022-12-14T03:06:53.559Z,-4.44
2022-12-14T03:09:20.289Z,-4.50
2022-12-14T03:11:52.465Z,-4.49
2022-12-14T03:14:26.823Z,-4.55
2022-12-14T03:16:56.078Z,-4.39
2022-12-14T03:19:44.187Z,-4.42
2022-12-14T03:22:17.141Z,-4.52
2022-12-14T03:24:55.596Z,-4.54
2022-12-14T03:27:30.249Z,-4.54
2022-12-14T03:30:00.552Z,-4.38
2022-12-14T03:32:31.219Z,-4.53
2022-12-14T03:35:03.225Z,-4.49
2022-12-14T03:37:51.448Z,-4.56
2022-12-14T03:40:24.501Z,-4.57
2022-12-14T03:43:02.775Z,-4.65
2022-12-14T03:45:49.383Z,-4.66
2022-12-14T03:48:35.218Z,-4.75
2022-12-14T03:51:01.569Z,-4.74
2022-12-14T03:53:49.766Z,-4.72
2022-12-14T03:56:27.291Z,-4.68
2022-12-14T03:59:16.951Z,-4.72
2022-12-14T04:01:58.677Z,-4.69
2022-12-14T04:04:31.174Z,-4.71
2022-12-14T04:07:22.971Z,-4.81
2022-12-14T04:10:02.763Z,-4.73
2022-12-14T04:12:39.552Z,-4.78
2022-12-14T04:15:14.151Z,-4.85
2022-12-14T04:17:45.782Z,-4.85
2022-12-14T04:20:19.569Z,-4.72
2022-12-14T04:22:53.045Z,-4.71
2022-12-14T04:25:25.522Z,-4.63
2022-12-14T04:27:56.242Z,-4.65
2022-12-14T04:30:22.881Z,-4.62
2022-12-14T04:33:02.332Z,-4.67
2022-12-14T04:35:42.379Z,-4.75
2022-12-14T04:38:15.479Z,-4.80
2022-12-14T04:41:02.682Z,-4.72
2022-12-14T04:43:31.655Z,-4.77
2022-12-14T04:46:01.975Z,-4.80
2022-12-14T04:48:39.531Z,-4.71
2022-12-14T04:51:21.993Z,-4.66
2022-12-14T04:53:52.521Z,-4.56
2022-12-14T04:56:28.271Z,-4.66
2022-12-14T04:58:54.837Z,-4.74
2022-12-14T05:01:53.737Z,-4.69
2022-12-14T05:04:31.307Z,-4.69
2022-12-14T05:07:28.479Z,-4.56
2022-12-14T05:10:06.252Z,-4.54
2022-12-14T05:13:00.892Z,-4.50
2022-12-14T05:15:33.562Z,-4.59
2022-12-14T05:18:05.111Z,-4.69
2022-12-14T05:20:31.651Z,-4.79
2022-12-14T05:22:58.323Z,-4.72
2022-12-14T05:25:24.848Z,-4.60
2022-12-14T05:27:51.438Z,-4.66
2022-12-14T05:30:17.949Z,-4.67
2022-12-14T05:32:44.421Z,-4.63
2022-12-14T05:35:12.627Z,-4.68
2022-12-14T05:37:39.407Z,-4.51
2022-12-14T05:40:06.568Z,-4.58
2022-12-14T05:42:32.992Z,-4.52
2022-12-14T05:44:59.354Z,-4.51
2022-12-14T05:47:26.028Z,-4.61
2022-12-14T05:49:52.677Z,-4.66
2022-12-14T05:52:19.787Z,-4.62
2022-12-14T05:54:46.174Z,-4.53
2022-12-14T05:57:12.554Z,-4.60
2022-12-14T05:59:39.068Z,-4.72
2022-12-14T06:02:05.597Z,-4.66
2022-12-14T06:04:32.610Z,-4.56
2022-12-14T06:06:59.024Z,-4.65
2022-12-14T06:09:25.378Z,-4.64
2022-12-14T06:11:52.139Z,-4.55
2022-12-14T06:14:18.887Z,-4.52
2022-12-14T06:16:46.560Z,-4.55
2022-12-14T06:19:14.725Z,-4.59
2022-12-14T06:21:42.347Z,-4.53
2022-12-14T06:24:11.153Z,-4.49
2022-12-14T06:26:38.070Z,-4.54
2022-12-14T06:29:04.978Z,-4.59
2022-12-14T06:31:32.551Z,-4.58
2022-12-14T06:34:01.019Z,-4.55
2022-12-14T06:36:30.154Z,-4.67
2022-12-14T06:39:00.055Z,-4.64
2022-12-14T06:41:26.528Z,-4.58
2022-12-14T06:43:53.263Z,-4.46
2022-12-14T06:46:21.753Z,-4.65
2022-12-14T06:48:53.946Z,-4.49
2022-12-14T06:51:21.700Z,-4.44
2022-12-14T06:53:53.023Z,-4.53
2022-12-14T06:56:21.413Z,-4.52
2022-12-14T06:58:47.797Z,-4.66
2022-12-14T07:01:20.025Z,-4.47
2022-12-14T07:03:57.714Z,-4.41
2022-12-14T07:06:26.183Z,-4.39
2022-12-14T07:08:54.533Z,-4.48
2022-12-14T07:11:21.877Z,-4.43
2022-12-14T07:13:48.784Z,-4.52
2022-12-14T07:16:21.479Z,-4.41
2022-12-14T07:18:48.180Z,-4.37
2022-12-14T07:21:16.175Z,-4.45
2022-12-14T07:23:44.736Z,-4.48
2022-12-14T07:26:12.731Z,-4.39
2022-12-14T07:28:39.911Z,-4.40
2022-12-14T07:31:10.805Z,-4.39
2022-12-14T07:33:37.590Z,-4.44
2022-12-14T07:36:11.272Z,-4.32
2022-12-14T07:38:39.674Z,-4.34
2022-12-14T07:41:12.228Z,-4.30
2022-12-14T07:43:39.998Z,-4.27
2022-12-14T07:46:13.189Z,-4.27
2022-12-14T07:48:39.804Z,-4.27
2022-12-14T07:51:09.504Z,-4.06
2022-12-14T07:53:37.648Z,-4.02
2022-12-14T07:56:06.912Z,-3.99
2022-12-14T07:58:34.486Z,-4.03
2022-12-14T08:01:15.014Z,-4.08
2022-12-14T08:03:44.270Z,-4.02
2022-12-14T08:06:12.010Z,-4.06
2022-12-14T08:08:38.851Z,-3.98
2022-12-14T08:11:06.654Z,-3.93
2022-12-14T08:13:34.203Z,-3.85
2022-12-14T08:16:05.867Z,-3.83
2022-12-14T08:18:33.008Z,-3.85
2022-12-14T08:21:00.637Z,-3.67
2022-12-14T08:23:27.631Z,-3.74
2022-12-14T08:25:56.224Z,-3.77
2022-12-14T08:28:23.595Z,-3.68
2022-12-14T08:30:50.020Z,-3.68
2022-12-14T08:33:17.514Z,-3.73
2022-12-14T08:35:44.282Z,-3.77
2022-12-14T08:38:10.765Z,-3.62
2022-12-14T08:40:38.412Z,-3.63
2022-12-14T08:43:06.384Z,-3.69
2022-12-14T08:45:33.380Z,-3.58
2022-12-14T08:48:00.682Z,-3.49
2022-12-14T08:50:28.229Z,-3.49
2022-12-14T08:52:55.783Z,-3.43
2022-12-14T08:55:27.205Z,-3.40
2022-12-14T08:57:55.780Z,-3.37
2022-12-14T09:00:22.101Z,-3.34
2022-12-14T09:02:52.554Z,-3.33
2022-12-14T09:05:18.992Z,-3.38
2022-12-14T09:07:45.722Z,-3.28
2022-12-14T09:10:12.709Z,-3.22
2022-12-14T09:12:39.931Z,-3.23
2022-12-14T09:15:07.322Z,-3.18
2022-12-14T09:17:34.620Z,-3.22
2022-12-14T09:20:01.149Z,-3.18
2022-12-14T09:22:27.720Z,-3.08
2022-12-14T09:24:54.096Z,-3.08
2022-12-14T09:27:20.485Z,-3.02
2022-12-14T09:29:47.106Z,-3.07
2022-12-14T09:32:13.414Z,-2.81
2022-12-14T09:34:39.745Z,-2.82
2022-12-14T09:37:06.180Z,-2.88
2022-12-14T09:39:33.032Z,-2.76
2022-12-14T09:42:26.021Z,-2.88
2022-12-14T09:45:08.291Z,-3.00
2022-12-14T09:47:43.628Z,-3.02
2022-12-14T09:50:17.656Z,-2.93
2022-12-14T09:52:54.712Z,-2.85
2022-12-14T09:55:30.072Z,-2.90
2022-12-14T09:58:01.296Z,-2.82
2022-12-14T10:00:34.837Z,-2.56
2022-12-14T10:03:09.701Z,-2.58
2022-12-14T10:05:54.861Z,-2.65
2022-12-14T10:08:25.809Z,-2.66
2022-12-14T10:11:09.857Z,-2.68
2022-12-14T10:14:02.004Z,-2.71
2022-12-14T10:17:01.083Z,-2.56
2022-12-14T10:19:32.921Z,-2.53
2022-12-14T10:22:05.980Z,-2.48
2022-12-14T10:24:42.662Z,-2.52
2022-12-14T10:27:12.830Z,-2.53
2022-12-14T10:29:47.102Z,-2.40
2022-12-14T10:32:34.744Z,-2.34
2022-12-14T10:35:26.263Z,-2.31
2022-12-14T10:38:05.225Z,-2.25
2022-12-14T10:40:35.008Z,-2.23
2022-12-14T10:43:23.880Z,-2.13
2022-12-14T10:46:29.638Z,-2.09
2022-12-14T10:49:14.873Z,-2.09
2022-12-14T10:51:52.549Z,-2.11
2022-12-14T10:54:36.644Z,-2.06
2022-12-14T10:57:03.218Z,-2.00
2022-12-14T10:59:39.573Z,-1.98
2022-12-14T11:02:12.783Z,-2.00
2022-12-14T11:04:56.415Z,-1.88
2022-12-14T11:07:33.689Z,-1.85
2022-12-14T11:10:20.599Z,-1.87
2022-12-14T11:13:01.113Z,-1.81
2022-12-14T11:15:32.040Z,-1.80
2022-12-14T11:18:17.219Z,-1.68
2022-12-14T11:20:54.498Z,-1.57
2022-12-14T11:23:23.242Z,-1.56
2022-12-14T11:25:54.141Z,-1.59
2022-12-14T11:28:50.052Z,-1.42
2022-12-14T11:31:20.277Z,-1.37
2022-12-14T11:33:55.867Z,-1.26
2022-12-14T11:36:27.501Z,-1.23
2022-12-14T11:38:56.485Z,-1.20
2022-12-14T11:41:23.664Z,-1.14
2022-12-14T11:44:02.605Z,-1.20
2022-12-14T11:47:14.969Z,-1.14
2022-12-14T11:49:41.222Z,-1.12
2022-12-14T11:52:20.817Z,-1.14
2022-12-14T11:54:50.243Z,-1.04
2022-12-14T11:57:40.629Z,-1.06
2022-12-14T12:00:47.167Z,-0.87
2022-12-14T12:03:21.859Z,-0.90
2022-12-14T12:05:49.774Z,-0.92
2022-12-14T12:08:27.202Z,-0.85
2022-12-14T12:11:01.868Z,-0.83
2022-12-14T12:13:32.312Z,-0.78
2022-12-14T12:16:12.221Z,-0.82
2022-12-14T12:18:49.874Z,-0.91
2022-12-14T12:21:19.057Z,-0.93
2022-12-14T12:24:10.232Z,-0.93
2022-12-14T12:26:50.155Z,-0.96
2022-12-14T12:29:25.664Z,-0.93
2022-12-14T12:32:03.995Z,-0.84
2022-12-14T12:34:43.582Z,-0.58
2022-12-14T12:37:27.350Z,-0.45
2022-12-14T12:40:00.656Z,-0.72
2022-12-14T12:42:51.671Z,-0.57
2022-12-14T12:45:27.313Z,-0.61
2022-12-14T12:48:01.547Z,-0.75
2022-12-14T12:50:36.373Z,-0.73
2022-12-14T12:53:13.570Z,-0.81
2022-12-14T12:55:51.222Z,-0.76
2022-12-14T12:58:22.332Z,-0.78
2022-12-14T13:00:51.630Z,-0.86
2022-12-14T13:03:28.166Z,-0.88
2022-12-14T13:06:14.181Z,-0.87
2022-12-14T13:08:43.433Z,-0.76
2022-12-14T13:11:27.137Z,-0.70
2022-12-14T13:13:59.304Z,-0.64
2022-12-14T13:16:31.959Z,-0.54
2022-12-14T13:19:25.315Z,-0.48
2022-12-14T13:21:54.291Z,-0.55
2022-12-14T13:24:22.923Z,-0.59
2022-12-14T13:27:29.130Z,-0.66
2022-12-14T13:30:01.520Z,-0.62
2022-12-14T13:32:58.446Z,-0.61
2022-12-14T13:35:45.598Z,-0.61
2022-12-14T13:38:35.305Z,-0.61
2022-12-14T13:41:15.382Z,-0.57
2022-12-14T13:43:57.583Z,-0.50
2022-12-14T13:46:26.701Z,-0.57
2022-12-14T13:48:55.110Z,-0.76
2022-12-14T13:51:31.025Z,-0.80
2022-12-14T13:53:59.432Z,-0.53
2022-12-14T13:56:36.322Z,-0.54
2022-12-14T13:59:06.749Z,-0.62
2022-12-14T14:01:48.635Z,-0.74
2022-12-14T14:04:21.227Z,-0.81
2022-12-14T14:06:49.751Z,-0.82
2022-12-14T14:09:31.592Z,-0.75
2022-12-14T14:12:03.994Z,-0.83
2022-12-14T14:15:02.498Z,-0.74
2022-12-14T14:17:41.932Z,-0.80
2022-12-14T14:20:35.670Z,-0.82
2022-12-14T14:23:14.204Z,-0.79
2022-12-14T14:25:43.564Z,-0.83
2022-12-14T14:28:16.320Z,-0.88
2022-12-14T14:30:57.309Z,-0.82
2022-12-14T14:33:47.043Z,-0.79
2022-12-14T14:36:31.018Z,-0.82
2022-12-14T14:39:00.146Z,-0.74
2022-12-14T14:41:38.917Z,-0.82
2022-12-14T14:44:19.701Z,-0.94
2022-12-14T14:46:49.939Z,-1.00
2022-12-14T14:49:24.522Z,-1.01
2022-12-14T14:51:50.929Z,-0.99
2022-12-14T14:54:30.659Z,-0.99
2022-12-14T14:57:03.696Z,-1.03
2022-12-14T14:59:51.077Z,-1.00
2022-12-14T15:02:41.439Z,-1.14
2022-12-14T15:05:41.451Z,-1.09
2022-12-14T15:08:05.298Z,-1.11
2022-12-14T15:10:38.962Z,-1.09
2022-12-14T15:13:19.129Z,-1.05
2022-12-14T15:15:47.453Z,-1.08
2022-12-14T15:18:24.309Z,-1.03
2022-12-14T15:21:04.909Z,-1.03
2022-12-14T15:23:52.755Z,-1.08
2022-12-14T15:26:28.834Z,-1.13
2022-12-14T15:28:58.082Z,-1.13
2022-12-14T15:31:39.712Z,-1.18
2022-12-14T15:34:06.671Z,-1.34
2022-12-14T15:36:40.850Z,-1.17
2022-12-14T15:39:25.975Z,-1.22
2022-12-14T15:42:02.331Z,-1.18
2022-12-14T15:44:28.663Z,-1.20
2022-12-14T15:46:55.378Z,-1.39
2022-12-14T15:49:23.230Z,-1.26
2022-12-14T15:51:50.961Z,-1.33
2022-12-14T15:54:24.320Z,-1.33
2022-12-14T15:56:54.334Z,-1.29
2022-12-14T15:59:24.034Z,-1.33
2022-12-14T16:02:17.457Z,-1.37
2022-12-14T16:04:45.175Z,-1.35
2022-12-14T16:07:21.247Z,-1.45
2022-12-14T16:09:51.958Z,-1.50
2022-12-14T16:12:27.177Z,-1.52
2022-12-14T16:14:57.599Z,-1.63
2022-12-14T16:17:30.668Z,-1.57
2022-12-14T16:20:01.113Z,-1.60
2022-12-14T16:22:30.425Z,-1.55
2022-12-14T16:25:12.201Z,-1.54
2022-12-14T16:27:41.403Z,-1.60
2022-12-14T16:30:22.426Z,-1.64
2022-12-14T16:32:52.073Z,-1.63
2022-12-14T16:35:24.542Z,-1.57
2022-12-14T16:37:55.317Z,-1.63
2022-12-14T16:40:28.168Z,-1.60
2022-12-14T16:42:54.563Z,-1.49
2022-12-14T16:45:46.089Z,-1.42
2022-12-14T16:48:20.594Z,-1.46
2022-12-14T16:50:57.039Z,-1.65
2022-12-14T16:53:28.780Z,-1.62
2022-12-14T16:56:17.870Z,-1.66
2022-12-14T16:58:54.740Z,-1.69
2022-12-14T17:01:22.501Z,-1.73
2022-12-14T17:04:02.377Z,-1.65
2022-12-14T17:06:37.401Z,-1.65
2022-12-14T17:09:04.648Z,-1.70
2022-12-14T17:11:31.050Z,-1.74
2022-12-14T17:13:57.422Z,-1.68
2022-12-14T17:16:23.835Z,-1.74
2022-12-14T17:18:50.384Z,-1.63
2022-12-14T17:21:22.094Z,-1.63
2022-12-14T17:23:48.543Z,-1.71
2022-12-14T17:26:27.353Z,-1.68
2022-12-14T17:28:54.350Z,-1.66
2022-12-14T17:31:24.835Z,-1.72
2022-12-14T17:33:52.768Z,-1.78
2022-12-14T17:36:19.179Z,-1.85
2022-12-14T17:38:45.579Z,-1.79
2022-12-14T17:41:25.755Z,-1.85
2022-12-14T17:43:57.720Z,-1.84
2022-12-14T17:46:24.553Z,-1.85
2022-12-14T17:48:51.006Z,-1.87
2022-12-14T17:51:26.326Z,-1.83
2022-12-14T17:53:53.529Z,-1.84
2022-12-14T17:56:20.729Z,-1.89
2022-12-14T17:58:47.148Z,-1.88
2022-12-14T18:01:24.101Z,-1.91
2022-12-14T18:03:51.021Z,-1.94
2022-12-14T18:06:18.534Z,-1.92
2022-12-14T18:08:45.613Z,-1.91
2022-12-14T18:11:18.962Z,-1.86
2022-12-14T18:13:45.472Z,-1.84
2022-12-14T18:16:16.863Z,-1.98
2022-12-14T18:18:44.137Z,-2.02
2022-12-14T18:21:21.500Z,-2.13
2022-12-14T18:23:49.651Z,-2.06
2022-12-14T18:26:17.826Z,-2.06
2022-12-14T18:28:44.211Z,-2.16
2022-12-14T18:31:32.795Z,-2.32
2022-12-14T18:33:59.271Z,-2.42
2022-12-14T18:36:25.674Z,-2.50
2022-12-14T18:38:52.091Z,-2.60
2022-12-14T18:41:22.461Z,-2.60
2022-12-14T18:43:49.396Z,-2.63
2022-12-14T18:46:16.097Z,-2.74
2022-12-14T18:48:43.318Z,-2.73
2022-12-14T18:51:14.971Z,-2.87
2022-12-14T18:53:41.793Z,-2.97
2022-12-14T18:56:10.771Z,-3.02
2022-12-14T18:58:37.864Z,-3.07
2022-12-14T19:01:04.270Z,-3.31
2022-12-14T19:03:32.912Z,-3.22
2022-12-14T19:06:42.310Z,-3.31
2022-12-14T19:08:54.627Z,-3.38
2022-12-14T19:11:34.244Z,-3.49
2022-12-14T19:14:01.091Z,-3.47
2022-12-14T19:16:27.817Z,-3.53
2022-12-14T19:18:54.233Z,-3.55
2022-12-14T19:21:20.596Z,-3.65
2022-12-14T19:23:47.002Z,-3.57
2022-12-14T19:26:13.588Z,-3.61
2022-12-14T19:28:39.979Z,-3.59
2022-12-14T19:31:09.986Z,-3.68
2022-12-14T19:33:42.442Z,-3.74
2022-12-14T19:36:10.455Z,-3.88
2022-12-14T19:38:37.631Z,-3.89
2022-12-14T19:41:07.008Z,-4.01
2022-12-14T19:43:34.443Z,-3.94
2022-12-14T19:46:05.677Z,-4.02
2022-12-14T19:48:32.183Z,-4.15
2022-12-14T19:51:03.483Z,-4.22
2022-12-14T19:53:34.683Z,-4.16
2022-12-14T19:56:02.298Z,-4.28
2022-12-14T19:58:29.656Z,-4.30
2022-12-14T20:00:56.472Z,-4.29
2022-12-14T20:03:23.297Z,-4.33
2022-12-14T20:05:58.194Z,-4.39
2022-12-14T20:08:25.882Z,-4.47
2022-12-14T20:10:52.718Z,-4.53
2022-12-14T20:13:20.055Z,-4.51
2022-12-14T20:15:54.503Z,-4.54
2022-12-14T20:18:24.266Z,-4.58
2022-12-14T20:20:51.516Z,-4.65
2022-12-14T20:23:19.991Z,-4.68
2022-12-14T20:25:46.431Z,-4.71
2022-12-14T20:28:12.756Z,-4.74
2022-12-14T20:30:43.592Z,-4.72
2022-12-14T20:33:10.239Z,-4.79
2022-12-14T20:35:36.641Z,-4.86
2022-12-14T20:38:03.055Z,-4.86
2022-12-14T20:40:31.416Z,-4.83
2022-12-14T20:43:01.655Z,-4.85
2022-12-14T20:45:28.042Z,-4.94
2022-12-14T20:47:54.774Z,-4.92
2022-12-14T20:50:21.203Z,-4.90
2022-12-14T20:52:47.507Z,-4.92
2022-12-14T20:55:16.870Z,-4.92
2022-12-14T20:57:43.285Z,-4.97
2022-12-14T21:00:12.177Z,-5.12
2022-12-14T21:02:39.072Z,-5.12
2022-12-14T21:05:06.094Z,-5.12
2022-12-14T21:07:32.486Z,-5.10
2022-12-14T21:09:58.970Z,-5.15
2022-12-14T21:12:25.461Z,-5.32
2022-12-14T21:14:53.865Z,-5.19
2022-12-14T21:17:21.997Z,-5.21
2022-12-14T21:19:49.369Z,-5.25
2022-12-14T21:22:24.240Z,-5.24
2022-12-14T21:25:07.105Z,-5.30
2022-12-14T21:27:37.496Z,-5.35
2022-12-14T21:30:06.346Z,-5.37
2022-12-14T21:32:35.478Z,-5.45
2022-12-14T21:35:01.991Z,-5.37
2022-12-14T21:37:28.469Z,-5.29
2022-12-14T21:39:55.812Z,-5.33
2022-12-14T21:42:26.170Z,-5.32
2022-12-14T21:44:53.913Z,-5.40
2022-12-14T21:47:23.654Z,-5.37
2022-12-14T21:49:50.201Z,-5.53
2022-12-14T21:52:22.760Z,-5.41
2022-12-14T21:54:49.822Z,-5.37
2022-12-14T21:57:21.122Z,-5.42
2022-12-14T21:59:47.519Z,-5.55
2022-12-14T22:02:20.757Z,-5.51
2022-12-14T22:04:47.886Z,-5.68
2022-12-14T22:07:19.534Z,-5.78
2022-12-14T22:09:49.934Z,-5.90
2022-12-14T22:12:17.415Z,-5.69
2022-12-14T22:14:44.008Z,-5.89
2022-12-14T22:17:13.074Z,-5.67
2022-12-14T22:19:39.466Z,-5.76
2022-12-14T22:22:13.128Z,-5.69
2022-12-14T22:24:39.571Z,-5.63
2022-12-14T22:27:05.954Z,-5.54
2022-12-14T22:29:32.344Z,-5.54
2022-12-14T22:31:58.926Z,-5.64
2022-12-14T22:34:25.790Z,-5.62
2022-12-14T22:36:52.396Z,-5.68
2022-12-14T22:39:19.170Z,-5.78
2022-12-14T22:41:45.951Z,-5.72
2022-12-14T22:44:12.769Z,-5.74
2022-12-14T22:46:40.111Z,-5.85
2022-12-14T22:49:07.043Z,-5.67
2022-12-14T22:51:33.426Z,-5.72
2022-12-14T22:53:59.786Z,-5.85
2022-12-14T22:56:31.308Z,-5.86
2022-12-14T22:59:10.838Z,-5.75
2022-12-14T23:01:38.142Z,-5.70
2022-12-14T23:04:07.110Z,-5.69
2022-12-14T23:06:34.386Z,-5.64
2022-12-14T23:09:00.893Z,-5.75
2022-12-14T23:11:27.897Z,-5.77
2022-12-14T23:13:54.285Z,-5.70
2022-12-14T23:16:20.808Z,-5.76
2022-12-14T23:18:47.378Z,-5.82
2022-12-14T23:21:14.409Z,-5.74
2022-12-14T23:23:43.069Z,-5.76
2022-12-14T23:26:09.509Z,-5.87
2022-12-14T23:28:35.971Z,-5.90
2022-12-14T23:31:02.466Z,-5.94
2022-12-14T23:33:29.257Z,-5.90
2022-12-14T23:35:55.881Z,-5.90
2022-12-14T23:38:22.193Z,-5.90
2022-12-14T23:40:48.535Z,-6.05
2022-12-14T23:43:17.697Z,-5.93
2022-12-14T23:45:44.226Z,-5.99
2022-12-14T23:48:10.632Z,-6.09
2022-12-14T23:50:37.002Z,-6.11
2022-12-14T23:53:08.091Z,-6.10
2022-12-14T23:55:34.555Z,-6.12
2022-12-14T23:58:00.977Z,-6.16
